Time;durP1;ratioP1;P1;durP2;ratioP2;P2;SDS_P1;SDS_P2;PMS_P1;PMS_P2;Temp;Humidity;BMP_temperature;BMP_pressure;BME280_temperature;BME280_humidity;BME280_pressure;Samples;Min_cycle;Max_cycle;Signal;HPM_P1;HPM_P2
2024/01/20 00:01:16;;;;;;;16.50;10.10;;;;;;;-0.32;78.65;99658.89;106453;1253;70637;-80
2024/01/20 00:03:44;;;;;;;16.30;9.60;;;;;;;-0.41;78.88;99671.67;106737;1256;71220;-79
2024/01/20 00:06:11;;;;;;;13.90;9.30;;;;;;;-0.45;79.04;99671.58;105900;1258;60411;-81
2024/01/20 00:08:39;;;;;;;19.80;10.60;;;;;;;-0.39;79.14;99672.26;105825;1253;60529;-81
2024/01/20 00:11:07;;;;;;;18.40;10.20;;;;;;;-0.38;79.19;99675.14;106133;1253;73880;-80
2024/01/20 00:13:34;;;;;;;17.00;9.80;;;;;;;-0.42;79.40;99674.16;106750;1252;69166;-78
2024/01/20 00:16:02;;;;;;;18.80;10.40;;;;;;;-0.45;79.21;99667.39;106077;1253;71284;-80
2024/01/20 00:18:30;;;;;;;17.20;9.70;;;;;;;-0.41;79.06;99665.39;105905;1256;60458;-78
2024/01/20 00:20:58;;;;;;;17.80;11.40;;;;;;;-0.44;79.08;99665.95;105897;1253;60528;-80
2024/01/20 00:23:26;;;;;;;16.50;10.40;;;;;;;-0.53;79.36;99669.10;106064;1257;73790;-81
2024/01/20 00:25:53;;;;;;;20.60;10.40;;;;;;;-0.57;79.44;99679.46;106068;1257;69949;-79
2024/01/20 00:28:21;;;;;;;19.30;10.90;;;;;;;-0.51;79.55;99688.12;105781;1254;72217;-79
2024/01/20 00:30:48;;;;;;;19.10;10.50;;;;;;;-0.52;79.73;99691.67;105857;1257;60457;-81
2024/01/20 00:33:16;;;;;;;17.50;9.90;;;;;;;-0.58;79.99;99690.35;106066;1253;60558;-80
2024/01/20 00:35:45;;;;;;;18.40;10.40;;;;;;;-0.64;79.98;99690.00;106031;1253;73154;-81
2024/01/20 00:38:12;;;;;;;17.40;10.20;;;;;;;-0.62;79.86;99683.76;106095;1255;69781;-81
2024/01/20 00:40:40;;;;;;;16.70;10.50;;;;;;;-0.63;80.20;99679.89;106132;1253;72660;-81
2024/01/20 00:43:08;;;;;;;19.60;11.60;;;;;;;-0.71;80.42;99685.59;106299;1253;60517;-80
2024/01/20 00:45:35;;;;;;;16.50;10.40;;;;;;;-0.80;80.58;99689.33;106346;1253;60539;-80
2024/01/20 00:48:03;;;;;;;19.00;11.30;;;;;;;-0.75;80.47;99697.69;106786;1253;72593;-79
2024/01/20 00:50:31;;;;;;;16.00;11.20;;;;;;;-0.71;80.60;99708.40;106887;1253;69601;-80
2024/01/20 00:52:58;;;;;;;21.60;11.40;;;;;;;-0.77;80.94;99713.77;108940;1253;71066;-75
2024/01/20 00:55:26;;;;;;;15.90;10.60;;;;;;;-0.87;81.21;99712.31;109008;1252;60401;-78
2024/01/20 00:57:53;;;;;;;16.30;10.60;;;;;;;-0.89;81.51;99710.37;108798;1253;59982;-78
2024/01/20 01:00:21;;;;;;;19.90;11.60;;;;;;;-0.78;81.47;99708.65;107780;1254;72653;-78
2024/01/20 01:02:48;;;;;;;20.40;12.50;;;;;;;-0.82;81.39;99707.45;106139;1252;68858;-77
2024/01/20 01:05:16;;;;;;;22.20;12.00;;;;;;;-0.92;81.61;99706.59;105948;1253;71047;-78
2024/01/20 01:07:43;;;;;;;19.30;11.90;;;;;;;-0.96;81.89;99705.39;105884;1253;60460;-78
2024/01/20 01:10:11;;;;;;;17.10;12.10;;;;;;;-0.88;81.73;99708.89;105931;1256;60410;-78
2024/01/20 01:12:39;;;;;;;18.90;11.80;;;;;;;-0.87;81.64;99709.02;105866;1253;73835;-79
2024/01/20 01:15:07;;;;;;;17.40;11.80;;;;;;;-0.91;82.15;99705.84;106214;1257;69170;-78
2024/01/20 01:17:34;;;;;;;18.70;11.30;;;;;;;-0.96;82.25;99710.82;106240;1253;72696;-77
2024/01/20 01:20:03;;;;;;;19.70;12.50;;;;;;;-0.90;82.27;99719.50;105923;1253;60527;-78
2024/01/20 01:22:30;;;;;;;21.30;12.60;;;;;;;-0.89;82.08;99721.67;105894;1253;60540;-79
2024/01/20 01:24:58;;;;;;;20.20;12.10;;;;;;;-0.97;82.13;99718.73;105892;1253;72732;-78
2024/01/20 01:27:25;;;;;;;20.70;12.20;;;;;;;-0.98;82.14;99712.66;106035;1256;70082;-78
2024/01/20 01:29:53;;;;;;;20.20;12.60;;;;;;;-0.90;81.91;99708.69;106052;1253;71397;-77
2024/01/20 01:32:21;;;;;;;22.90;12.80;;;;;;;-0.91;81.94;99704.20;105998;1257;60422;-76
2024/01/20 01:34:48;;;;;;;21.60;13.20;;;;;;;-0.96;82.21;99704.75;105852;1258;60310;-77
2024/01/20 01:37:16;;;;;;;20.70;12.00;;;;;;;-1.02;81.98;99707.30;106237;1253;71875;-76
2024/01/20 01:39:43;;;;;;;20.10;12.10;;;;;;;-0.97;81.70;99717.47;106522;1257;69313;-77
2024/01/20 01:42:11;;;;;;;21.10;12.00;;;;;;;-0.95;81.57;99720.65;106872;1253;73715;-77
2024/01/20 01:44:38;;;;;;;18.30;11.70;;;;;;;-1.02;82.01;99722.48;108091;1252;60438;-77
2024/01/20 01:47:06;;;;;;;20.00;12.90;;;;;;;-1.09;81.87;99723.79;107894;1256;60415;-77
2024/01/20 01:49:33;;;;;;;21.70;12.20;;;;;;;-1.12;81.83;99724.45;107717;1252;71700;-76
2024/01/20 01:52:01;;;;;;;23.40;11.80;;;;;;;-1.07;81.51;99726.79;109309;1253;71341;-77
2024/01/20 01:54:28;;;;;;;20.10;11.90;;;;;;;-1.07;81.16;99730.61;107673;1257;70876;-78
2024/01/20 01:56:59;;;;;;;17.40;11.60;;;;;;;-1.08;82.03;99736.06;106397;1253;60343;-78
2024/01/20 01:59:28;;;;;;;20.20;12.70;;;;;;;-1.07;82.38;99744.86;106412;1254;60305;-79
2024/01/20 02:01:55;;;;;;;21.50;12.40;;;;;;;-1.07;82.34;99750.42;106000;1253;72667;-79
2024/01/20 02:04:23;;;;;;;19.50;12.70;;;;;;;-1.04;82.04;99750.92;106196;1253;71094;-81
2024/01/20 02:06:50;;;;;;;16.70;12.00;;;;;;;-0.95;81.54;99761.52;106003;1253;72997;-80
2024/01/20 02:09:18;;;;;;;22.70;13.10;;;;;;;-1.01;81.37;99765.52;106259;1253;60421;-80
2024/01/20 02:11:46;;;;;;;22.80;14.10;;;;;;;-1.08;81.89;99760.75;105997;1257;60409;-81
2024/01/20 02:14:14;;;;;;;17.30;11.90;;;;;;;-1.13;82.04;99760.49;105947;1253;72292;-81
2024/01/20 02:16:41;;;;;;;21.70;13.30;;;;;;;-1.13;81.71;99769.89;105775;1258;68930;-80
2024/01/20 02:19:09;;;;;;;23.20;13.30;;;;;;;-1.19;81.83;99771.34;105904;1258;72926;-81
2024/01/20 02:21:38;;;;;;;21.00;12.90;;;;;;;-1.33;81.82;99774.40;106149;1257;60493;-80
2024/01/20 02:24:05;;;;;;;20.80;12.80;;;;;;;-1.45;82.06;99780.48;106169;1253;60339;-80
2024/01/20 02:26:33;;;;;;;21.30;13.40;;;;;;;-1.44;81.87;99786.70;106174;1257;73783;-81
2024/01/20 02:29:00;;;;;;;24.30;13.50;;;;;;;-1.44;81.89;99787.70;105955;1253;70186;-80
2024/01/20 02:31:28;;;;;;;25.00;14.20;;;;;;;-1.47;82.22;99789.14;105948;1253;72619;-81
2024/01/20 02:33:55;;;;;;;22.50;13.40;;;;;;;-1.51;82.18;99796.83;105864;1253;60462;-78
2024/01/20 02:36:23;;;;;;;22.30;14.20;;;;;;;-1.53;81.91;99792.79;105944;1254;60538;-80
2024/01/20 02:38:51;;;;;;;24.40;13.00;;;;;;;-1.47;81.58;99791.58;105907;1253;73025;-80
2024/01/20 02:41:19;;;;;;;23.00;15.30;;;;;;;-1.51;81.36;99795.80;105824;1256;69019;-78
2024/01/20 02:43:46;;;;;;;27.40;15.50;;;;;;;-1.61;81.68;99802.61;106131;1253;70698;-80
2024/01/20 02:46:14;;;;;;;24.70;14.70;;;;;;;-1.67;81.78;99805.76;106657;1253;60913;-79
2024/01/20 02:48:41;;;;;;;21.10;13.20;;;;;;;-1.59;81.82;99802.31;108323;1253;59081;-80
2024/01/20 02:51:09;;;;;;;23.60;13.90;;;;;;;-1.52;81.96;99802.61;109086;1253;72562;-79
2024/01/20 02:53:36;;;;;;;30.20;15.00;;;;;;;-1.55;81.97;99810.27;107176;1257;68749;-78
2024/01/20 02:56:04;;;;;;;23.80;14.40;;;;;;;-1.63;82.00;99815.95;106387;1253;71571;-78
2024/01/20 02:58:32;;;;;;;23.70;14.00;;;;;;;-1.66;81.93;99822.73;105947;1252;61079;-76
2024/01/20 03:01:00;;;;;;;22.30;14.20;;;;;;;-1.61;81.84;99826.42;105931;1253;60361;-77
2024/01/20 03:03:28;;;;;;;23.20;14.50;;;;;;;-1.63;82.23;99836.08;105897;1253;72551;-77
2024/01/20 03:05:56;;;;;;;31.80;15.90;;;;;;;-1.67;82.20;99842.56;105844;1256;69088;-78
2024/01/20 03:08:23;;;;;;;23.90;14.60;;;;;;;-1.67;82.35;99844.13;105808;1253;71188;-77
2024/01/20 03:10:51;;;;;;;22.70;13.30;;;;;;;-1.57;81.94;99848.73;105838;1253;60854;-77
2024/01/20 03:13:18;;;;;;;24.60;15.20;;;;;;;-1.56;81.33;99848.20;105898;1253;60496;-77
2024/01/20 03:15:46;;;;;;;24.30;14.10;;;;;;;-1.66;81.86;99854.33;105904;1253;74215;-81
2024/01/20 03:18:13;;;;;;;21.40;12.90;;;;;;;-1.66;82.27;99861.64;105907;1253;69588;-80
2024/01/20 03:20:41;;;;;;;26.60;14.90;;;;;;;-1.57;81.78;99864.55;106035;1256;72649;-80
2024/01/20 03:23:08;;;;;;;28.00;16.20;;;;;;;-1.51;81.47;99861.45;106538;1257;60419;-80
2024/01/20 03:25:36;;;;;;;23.40;13.80;;;;;;;-1.53;81.74;99860.21;107470;1257;60597;-80
2024/01/20 03:28:03;;;;;;;28.30;15.70;;;;;;;-1.57;81.53;99862.65;106181;1253;76100;-81
2024/01/20 03:30:31;;;;;;;24.90;14.40;;;;;;;-1.58;81.55;99867.94;105769;1253;70214;-81
2024/01/20 03:32:58;;;;;;;26.40;14.30;;;;;;;-1.50;81.25;99866.44;105963;1258;71776;-81
2024/01/20 03:35:26;;;;;;;27.20;16.30;;;;;;;-1.48;81.52;99868.23;106336;1256;60437;-80
2024/01/20 03:37:54;;;;;;;28.30;16.60;;;;;;;-1.52;81.59;99866.93;106051;1253;60564;-82
2024/01/20 03:40:21;;;;;;;31.00;16.40;;;;;;;-1.59;81.55;99869.36;106278;1253;73947;-82
2024/01/20 03:42:49;;;;;;;25.20;14.60;;;;;;;-1.51;81.50;99878.29;105899;1257;69089;-80
2024/01/20 03:45:16;;;;;;;23.80;14.90;;;;;;;-1.48;81.59;99881.41;107817;1253;71702;-81
2024/01/20 03:47:44;;;;;;;29.00;16.30;;;;;;;-1.48;81.94;99886.46;109118;1253;60403;-82
2024/01/20 03:50:11;;;;;;;25.30;15.40;;;;;;;-1.48;81.36;99891.54;108697;1253;59104;-81
2024/01/20 03:52:39;;;;;;;25.80;15.70;;;;;;;-1.50;81.19;99889.85;108001;1256;73874;-82
2024/01/20 03:55:08;;;;;;;26.90;16.10;;;;;;;-1.40;81.41;99894.52;106803;1253;68969;-80
2024/01/20 03:57:35;;;;;;;26.30;16.20;;;;;;;-1.36;81.42;99896.58;106290;1253;71068;-80
2024/01/20 04:00:04;;;;;;;26.40;16.00;;;;;;;-1.43;81.34;99900.41;106078;1259;60413;-79
2024/01/20 04:02:32;;;;;;;28.50;16.00;;;;;;;-1.47;81.44;99912.31;105753;1259;60290;-79
2024/01/20 04:04:59;;;;;;;28.70;16.10;;;;;;;-1.44;81.16;99913.67;105824;1258;73868;-78
2024/01/20 04:07:27;;;;;;;29.90;16.50;;;;;;;-1.45;81.44;99916.02;105913;1256;68712;-78
2024/01/20 04:09:54;;;;;;;26.70;15.20;;;;;;;-1.53;81.50;99922.71;105813;1253;72846;-78
2024/01/20 04:12:22;;;;;;;27.50;15.40;;;;;;;-1.60;81.58;99925.54;105825;1257;60406;-78
2024/01/20 04:14:49;;;;;;;32.00;18.20;;;;;;;-1.52;81.34;99931.55;105851;1257;174426;-78
2024/01/20 04:20:13;;;;;;;31.70;19.50;;;;;;;-1.56;81.50;99933.31;103918;1292;602539;-79
2024/01/20 04:22:40;;;;;;;26.10;16.60;;;;;;;-1.59;81.97;99937.09;105623;1268;59587;-78
2024/01/20 04:25:07;;;;;;;28.00;16.10;;;;;;;-1.58;81.48;99943.48;105384;1269;60152;-78
2024/01/20 04:27:40;;;;;;;31.20;17.90;;;;;;;-1.55;81.13;99944.54;105479;1270;72297;-77
2024/01/20 04:30:08;;;;;;;27.90;17.30;;;;;;;-1.53;81.33;99949.27;106005;1264;68836;-79
2024/01/20 04:32:36;;;;;;;31.40;18.20;;;;;;;-1.53;81.68;99950.72;105217;1266;139034;-78
2024/01/20 04:35:04;;;;;;;29.40;18.10;;;;;;;-1.54;81.67;99953.54;105459;1260;59589;-79
2024/01/20 04:37:31;;;;;;;33.10;18.70;;;;;;;-1.62;81.23;99954.46;105731;1268;60370;-79
2024/01/20 04:39:59;;;;;;;29.00;17.00;;;;;;;-1.58;81.41;99961.40;105927;1267;72021;-78
2024/01/20 04:42:26;;;;;;;30.60;18.00;;;;;;;-1.50;81.40;99967.17;105739;1261;70253;-78
2024/01/20 04:44:53;;;;;;;29.10;17.90;;;;;;;-1.54;81.37;99967.58;108980;1253;73036;-79
2024/01/20 04:47:19;;;;;;;27.90;17.10;;;;;;;-1.63;81.39;99972.25;108562;1254;59728;-79
2024/01/20 04:49:53;;;;;;;26.50;16.00;;;;;;;-1.67;81.62;99968.48;107081;1254;60168;-81
2024/01/20 04:52:20;;;;;;;25.40;16.20;;;;;;;-1.60;81.05;99970.70;106726;1256;72810;-80
2024/01/20 04:54:47;;;;;;;28.10;16.60;;;;;;;-1.59;81.15;99974.82;106426;1254;70803;-79
2024/01/20 04:57:13;;;;;;;27.50;17.80;;;;;;;-1.66;81.38;99973.79;106034;1266;72648;-79
2024/01/20 04:59:40;;;;;;;27.90;17.10;;;;;;;-1.73;81.76;99978.70;108449;1254;59571;-79
2024/01/20 05:02:07;;;;;;;33.60;16.90;;;;;;;-1.75;81.86;99977.79;108673;1254;59166;-79
2024/01/20 05:04:33;;;;;;;25.30;15.00;;;;;;;-1.66;81.27;99981.42;108560;1254;58207;-77
2024/01/20 05:07:00;;;;;;;27.30;16.90;;;;;;;-1.68;81.29;99984.34;106318;1254;68874;-78
2024/01/20 05:09:27;;;;;;;29.70;17.00;;;;;;;-1.71;81.80;99987.30;106248;1255;72663;-79
2024/01/20 05:11:54;;;;;;;31.00;17.00;;;;;;;-1.74;81.46;99992.67;105959;1257;59633;-79
2024/01/20 05:14:21;;;;;;;25.70;15.40;;;;;;;-1.73;81.28;99996.77;105964;1257;60324;-79
2024/01/20 05:16:47;;;;;;;24.50;16.20;;;;;;;-1.66;81.12;100005.40;106131;1256;72990;-80
2024/01/20 05:19:14;;;;;;;25.80;15.60;;;;;;;-1.69;81.06;100011.49;105937;1254;70123;-80
2024/01/20 05:21:41;;;;;;;26.50;16.00;;;;;;;-1.79;81.24;100015.85;106477;1254;72717;-80
2024/01/20 05:24:08;;;;;;;27.00;16.10;;;;;;;-1.84;81.49;100021.80;107017;1256;59364;-80
2024/01/20 05:26:35;;;;;;;23.80;14.30;;;;;;;-1.77;80.72;100027.73;106034;1254;60433;-79
2024/01/20 05:29:01;;;;;;;23.60;13.50;;;;;;;-1.77;80.53;100035.02;106162;1256;73042;-78
2024/01/20 05:31:31;;;;;;;24.40;13.20;;;;;;;-1.88;80.11;100042.39;105956;1257;70184;-78
2024/01/20 05:33:58;;;;;;;23.70;15.10;;;;;;;-2.03;80.61;100040.19;106234;1252;71179;-78
2024/01/20 05:36:25;;;;;;;24.10;14.50;;;;;;;-2.11;80.57;100043.59;106140;1251;59817;-79
2024/01/20 05:38:52;;;;;;;23.60;13.50;;;;;;;-2.13;80.21;100045.79;106064;1257;60176;-78
2024/01/20 05:41:19;;;;;;;22.30;14.10;;;;;;;-2.09;79.70;100053.53;107203;1252;70959;-78
2024/01/20 05:43:45;;;;;;;26.10;13.60;;;;;;;-2.15;79.67;100054.36;109245;1254;69564;-78
2024/01/20 05:46:12;;;;;;;19.80;12.30;;;;;;;-2.27;79.89;100055.69;108568;1253;71141;-77
2024/01/20 05:48:39;;;;;;;81.90;41.80;;;;;;;-2.41;80.08;100058.77;106663;1254;61243;-78
2024/01/20 05:51:06;;;;;;;27.10;15.50;;;;;;;-2.41;80.16;100058.31;106375;1254;60592;-77
2024/01/20 05:53:32;;;;;;;25.10;14.60;;;;;;;-2.40;80.15;100062.04;106116;1254;72852;-77
2024/01/20 05:55:59;;;;;;;23.20;14.30;;;;;;;-2.46;80.47;100065.66;108237;1254;67727;-76
2024/01/20 05:58:26;;;;;;;28.70;14.10;;;;;;;-2.51;81.07;100068.88;108155;1254;72622;-75
2024/01/20 06:00:52;;;;;;;25.90;14.00;;;;;;;-2.51;81.10;100074.40;106497;1253;59981;-78
2024/01/20 06:03:19;;;;;;;25.40;14.70;;;;;;;-2.40;80.77;100082.04;106222;1254;59548;-78
2024/01/20 06:05:46;;;;;;;23.30;14.10;;;;;;;-2.34;80.83;100084.34;106087;1256;72745;-80
2024/01/20 06:08:13;;;;;;;21.90;12.60;;;;;;;-2.40;80.98;100091.02;106032;1257;70600;-82
2024/01/20 06:10:39;;;;;;;22.60;13.40;;;;;;;-2.50;80.81;100101.40;105753;1254;72533;-80
2024/01/20 06:13:06;;;;;;;23.30;13.30;;;;;;;-2.58;81.11;100108.05;106864;1253;61146;-80
2024/01/20 06:15:33;;;;;;;22.70;13.40;;;;;;;-2.50;80.94;100115.63;106781;1256;60136;-77
2024/01/20 06:18:00;;;;;;;19.30;13.00;;;;;;;-2.48;81.03;100119.02;105973;1253;73175;-82
2024/01/20 06:20:27;;;;;;;21.70;13.10;;;;;;;-2.54;80.76;100125.35;106008;1255;69048;-79
2024/01/20 06:22:54;;;;;;;23.60;14.40;;;;;;;-2.65;80.41;100126.09;105813;1254;70770;-79
2024/01/20 06:25:20;;;;;;;21.80;12.70;;;;;;;-2.73;80.64;100121.08;105787;1254;60176;-82
2024/01/20 06:27:47;;;;;;;24.10;13.60;;;;;;;-2.66;80.46;100116.25;105891;1254;60181;-78
2024/01/20 06:30:14;;;;;;;24.90;14.20;;;;;;;-2.61;80.48;100120.48;106123;1254;60181;-80
2024/01/20 06:32:41;;;;;;;28.30;15.00;;;;;;;-2.64;80.79;100118.23;106231;1251;70097;-77
2024/01/20 06:35:08;;;;;;;27.10;15.00;;;;;;;-2.68;81.18;100120.52;106133;1254;71333;-79
2024/01/20 06:37:35;;;;;;;29.90;15.90;;;;;;;-2.70;80.74;100129.46;106580;1257;60891;-80
2024/01/20 06:40:02;;;;;;;26.40;15.10;;;;;;;-2.64;80.59;100127.59;108093;1252;59110;-80
2024/01/20 06:42:28;;;;;;;22.50;14.30;;;;;;;-2.64;80.73;100126.52;108709;1253;71516;-80
2024/01/20 06:44:55;;;;;;;22.90;13.00;;;;;;;-2.66;81.17;100137.93;107987;1255;68996;-80
2024/01/20 06:47:25;;;;;;;18.90;12.80;;;;;;;-2.71;81.18;100133.13;106849;1254;71481;-81
2024/01/20 06:49:53;;;;;;;21.40;12.60;;;;;;;-2.70;81.38;100133.41;107043;1254;60830;-80
2024/01/20 06:52:20;;;;;;;19.30;12.40;;;;;;;-2.54;80.96;100139.09;106272;1255;59584;-81
2024/01/20 06:54:48;;;;;;;19.90;12.60;;;;;;;-2.47;81.20;100135.63;106072;1254;73045;-80
2024/01/20 06:57:15;;;;;;;22.60;12.80;;;;;;;-2.46;81.08;100134.69;106041;1254;70525;-81
2024/01/20 06:59:42;;;;;;;21.30;12.40;;;;;;;-2.49;80.80;100140.24;106054;1253;72457;-81
2024/01/20 07:02:09;;;;;;;22.00;13.80;;;;;;;-2.46;80.38;100142.48;106022;1253;61590;-80
2024/01/20 07:04:35;;;;;;;23.70;13.50;;;;;;;-2.40;80.48;100148.42;106032;1256;59564;-80
2024/01/20 07:07:02;;;;;;;24.50;14.20;;;;;;;-2.41;80.67;100146.58;106021;1254;73092;-78
2024/01/20 07:09:29;;;;;;;21.90;13.70;;;;;;;-2.47;80.67;100146.55;106121;1254;70357;-80
2024/01/20 07:11:57;;;;;;;21.10;14.00;;;;;;;-2.54;80.73;100147.04;106545;1254;72466;-79
2024/01/20 07:14:25;;;;;;;28.60;15.70;;;;;;;-2.54;80.84;100151.92;106028;1254;61419;-79
2024/01/20 07:16:52;;;;;;;23.80;13.60;;;;;;;-2.46;80.80;100166.63;106184;1254;59725;-80
2024/01/20 07:19:19;;;;;;;22.20;13.80;;;;;;;-2.46;80.81;100171.45;106381;1253;72309;-80
2024/01/20 07:21:46;;;;;;;22.40;14.00;;;;;;;-2.52;80.83;100173.86;106149;1253;70332;-80
2024/01/20 07:24:12;;;;;;;22.80;14.10;;;;;;;-2.60;81.06;100170.06;106079;1253;72395;-82
2024/01/20 07:26:39;;;;;;;21.70;13.10;;;;;;;-2.59;80.98;100169.48;106078;1254;61006;-83
2024/01/20 07:29:06;;;;;;;23.30;13.00;;;;;;;-2.49;80.79;100176.15;106617;1253;60152;-79
2024/01/20 07:31:32;;;;;;;23.10;13.90;;;;;;;-2.48;80.77;100180.23;106407;1256;72576;-75
2024/01/20 07:33:59;;;;;;;23.60;13.50;;;;;;;-2.48;81.07;100185.77;107827;1255;69014;-80
2024/01/20 07:36:26;;;;;;;20.50;12.20;;;;;;;-2.47;81.08;100189.21;106369;1252;73487;-80
2024/01/20 07:38:53;;;;;;;21.00;11.80;;;;;;;-2.40;81.06;100194.09;108948;1252;59925;-79
2024/01/20 07:41:20;;;;;;;19.60;12.20;;;;;;;-2.24;80.45;100197.09;108980;1252;58819;-80
2024/01/20 07:43:47;;;;;;;28.30;13.70;;;;;;;-2.18;80.34;100198.54;108089;1253;71935;-81
2024/01/20 07:46:13;;;;;;;22.40;13.90;;;;;;;-2.15;80.63;100200.66;106641;1258;70082;-78
2024/01/20 07:48:40;;;;;;;24.70;11.70;;;;;;;-2.14;80.26;100197.17;106308;1254;70404;-78
2024/01/20 07:51:07;;;;;;;21.40;11.80;;;;;;;-2.14;79.57;100201.11;105880;1252;60984;-81
2024/01/20 07:53:34;;;;;;;19.60;12.20;;;;;;;-2.09;78.96;100203.52;106101;1257;60151;-80
2024/01/20 07:56:01;;;;;;;21.10;12.80;;;;;;;-2.13;78.90;100210.61;106127;1254;71655;-80
2024/01/20 07:58:28;;;;;;;22.00;12.80;;;;;;;-2.21;79.14;100211.19;106646;1253;70304;-79
2024/01/20 08:00:55;;;;;;;24.10;12.60;;;;;;;-2.25;79.47;100215.02;106069;1254;71769;-78
2024/01/20 08:03:22;;;;;;;20.70;12.30;;;;;;;-2.23;79.15;100214.91;106049;1252;61217;-79
2024/01/20 08:05:48;;;;;;;22.00;13.20;;;;;;;-2.12;79.00;100212.81;106087;1257;61092;-79
2024/01/20 08:08:15;;;;;;;22.70;12.60;;;;;;;-2.11;78.98;100210.69;106144;1255;73015;-79
2024/01/20 08:10:42;;;;;;;25.20;14.80;;;;;;;-2.15;79.17;100216.63;105960;1252;71257;-79
2024/01/20 08:13:09;;;;;;;21.10;12.40;;;;;;;-2.21;79.17;100218.61;105943;1257;70379;-80
2024/01/20 08:15:36;;;;;;;24.10;13.00;;;;;;;-2.19;78.98;100222.19;106036;1257;60307;-79
2024/01/20 08:18:03;;;;;;;23.70;13.30;;;;;;;-2.09;78.59;100228.81;105864;1254;59795;-77
2024/01/20 08:20:30;;;;;;;19.50;12.70;;;;;;;-2.09;78.72;100234.20;106137;1256;73097;-79
2024/01/20 08:22:57;;;;;;;23.70;13.20;;;;;;;-2.10;79.00;100241.56;105964;1253;70513;-79
2024/01/20 08:25:23;;;;;;;25.60;14.40;;;;;;;-2.11;78.98;100240.56;105997;1254;72521;-80
2024/01/20 08:27:50;;;;;;;20.60;11.70;;;;;;;-2.09;78.56;100242.89;105966;1252;60993;-79
2024/01/20 08:30:17;;;;;;;22.20;13.60;;;;;;;-1.99;78.36;100245.88;105994;1253;60407;-79
2024/01/20 08:32:44;;;;;;;23.10;13.30;;;;;;;-1.95;78.40;100248.78;106444;1255;73802;-81
2024/01/20 08:35:11;;;;;;;21.90;12.30;;;;;;;-1.94;78.44;100250.45;107063;1253;68297;-80
2024/01/20 08:37:38;;;;;;;19.40;11.90;;;;;;;-1.95;77.77;100248.79;108942;1252;71425;-80
2024/01/20 08:40:07;;;;;;;20.80;12.70;;;;;;;-1.95;77.55;100250.35;109068;1251;60409;-81
2024/01/20 08:42:34;;;;;;;19.10;11.50;;;;;;;-1.84;77.00;100250.83;107397;1252;59260;-80
2024/01/20 08:45:01;;;;;;;21.90;12.90;;;;;;;-1.81;76.83;100251.77;107513;1253;72471;-80
2024/01/20 08:47:28;;;;;;;19.90;12.20;;;;;;;-1.86;76.91;100246.23;106471;1253;69299;-82
2024/01/20 08:49:54;;;;;;;17.70;10.40;;;;;;;-1.88;76.93;100244.98;106103;1253;72778;-81
2024/01/20 08:52:21;;;;;;;18.30;10.00;;;;;;;-1.85;76.56;100246.04;106257;1253;61158;-81
2024/01/20 08:54:48;;;;;;;17.50;10.70;;;;;;;-1.71;76.10;100243.95;106039;1255;60453;-81
2024/01/20 08:57:15;;;;;;;20.60;10.70;;;;;;;-1.61;75.52;100244.48;105933;1253;72728;-81
2024/01/20 08:59:42;;;;;;;19.40;11.50;;;;;;;-1.63;75.43;100245.95;106121;1253;70107;-81
2024/01/20 09:02:11;;;;;;;20.70;10.80;;;;;;;-1.65;75.18;100250.07;106687;1253;72625;-79
2024/01/20 09:04:38;;;;;;;16.50;9.30;;;;;;;-1.67;75.24;100255.88;107438;1252;60339;-80
2024/01/20 09:07:06;;;;;;;18.10;9.40;;;;;;;-1.63;74.06;100261.63;107584;1255;60306;-80
2024/01/20 09:09:33;;;;;;;16.60;9.10;;;;;;;-1.50;73.88;100264.42;107363;1255;74009;-79
2024/01/20 09:11:59;;;;;;;15.30;9.10;;;;;;;-1.45;73.17;100272.15;107132;1253;70133;-80
2024/01/20 09:14:26;;;;;;;18.50;9.00;;;;;;;-1.49;72.99;100265.08;106430;1253;72568;-78
2024/01/20 09:16:53;;;;;;;16.50;9.10;;;;;;;-1.56;72.81;100267.52;106757;1254;60539;-82
2024/01/20 09:19:20;;;;;;;16.10;9.40;;;;;;;-1.62;72.81;100265.72;106244;1255;62444;-82
2024/01/20 09:21:46;;;;;;;14.70;8.70;;;;;;;-1.69;71.83;100262.42;106084;1255;73735;-82
2024/01/20 09:24:13;;;;;;;13.00;7.80;;;;;;;-1.79;72.10;100252.15;106235;1258;69056;-82
2024/01/20 09:26:40;;;;;;;12.20;7.50;;;;;;;-1.75;71.86;100257.54;106217;1253;72460;-83
2024/01/20 09:29:09;;;;;;;12.90;7.90;;;;;;;-1.65;71.79;100261.16;107010;1255;61107;-82
2024/01/20 09:31:35;;;;;;;13.30;7.70;;;;;;;-1.59;72.14;100265.41;106174;1253;60531;-81
2024/01/20 09:34:03;;;;;;;15.30;9.10;;;;;;;-1.59;72.02;100264.50;107546;1252;73803;-79
2024/01/20 09:36:31;;;;;;;13.80;8.40;;;;;;;-1.58;72.28;100266.23;109330;1252;69118;-80
2024/01/20 09:38:58;;;;;;;14.60;8.70;;;;;;;-1.55;72.21;100266.77;108457;1252;71241;-79
2024/01/20 09:41:24;;;;;;;14.00;7.10;;;;;;;-1.52;71.89;100262.63;106665;1256;60422;-81
2024/01/20 09:43:51;;;;;;;11.70;6.70;;;;;;;-1.48;71.85;100264.15;106669;1256;60405;-82
2024/01/20 09:46:17;;;;;;;11.70;7.10;;;;;;;-1.32;71.50;100262.30;106224;1257;72277;-81
2024/01/20 09:48:44;;;;;;;11.90;6.90;;;;;;;-1.28;70.41;100255.65;105888;1253;70103;-83
2024/01/20 09:51:11;;;;;;;11.60;6.40;;;;;;;-1.37;70.17;100264.64;106076;1253;72621;-80
2024/01/20 09:53:38;;;;;;;10.50;6.10;;;;;;;-1.44;70.12;100268.98;107307;1253;60550;-80
2024/01/20 09:56:05;;;;;;;10.50;6.20;;;;;;;-1.49;70.24;100272.70;106941;1252;60494;-81
2024/01/20 09:58:34;;;;;;;8.90;6.10;;;;;;;-1.51;70.08;100271.94;106218;1258;73720;-81
2024/01/20 10:01:01;;;;;;;10.40;6.60;;;;;;;-1.55;69.75;100269.04;106404;1258;69152;-81
2024/01/20 10:03:28;;;;;;;13.90;5.90;;;;;;;-1.48;69.93;100267.11;106884;1253;72642;-79
2024/01/20 10:05:57;;;;;;;11.30;5.30;;;;;;;-1.40;69.90;100270.36;108058;1253;60396;-79
2024/01/20 10:08:26;;;;;;;9.30;5.50;;;;;;;-1.42;69.38;100274.44;107717;1253;60549;-81
2024/01/20 10:11:05;;;;;;;10.20;5.90;;;;;;;-1.47;69.12;100275.39;106114;1253;72288;-79
2024/01/20 10:13:32;;;;;;;8.30;5.90;;;;;;;-1.52;69.28;100277.73;106141;1257;70149;-80
2024/01/20 10:15:58;;;;;;;10.80;6.70;;;;;;;-1.53;69.38;100274.11;105992;1253;72392;-80
2024/01/20 10:18:25;;;;;;;9.30;6.30;;;;;;;-1.54;69.18;100276.45;105960;1253;60469;-81
2024/01/20 10:21:05;;;;;;;11.60;7.10;;;;;;;-1.56;69.38;100276.03;106112;1258;59604;-81
2024/01/20 10:23:37;;;;;;;10.50;5.70;;;;;;;-1.48;69.52;100272.66;106053;1257;75103;-80
2024/01/20 10:26:05;;;;;;;9.00;6.60;;;;;;;-1.33;69.40;100275.58;106123;1256;70682;-81
2024/01/20 10:28:32;;;;;;;10.00;6.30;;;;;;;-1.30;69.39;100280.80;106283;1256;70663;-81
2024/01/20 10:31:09;;;;;;;10.50;7.30;;;;;;;-1.32;69.37;100284.20;107497;1251;60387;-81
2024/01/20 10:33:38;;;;;;;12.30;7.60;;;;;;;-1.33;68.98;100289.29;109028;1253;59270;-79
2024/01/20 10:36:05;;;;;;;11.10;7.10;;;;;;;-1.36;68.90;100283.19;108441;1252;73036;-79
2024/01/20 10:38:38;;;;;;;9.90;6.60;;;;;;;-1.37;68.90;100277.31;106531;1253;69046;-79
2024/01/20 10:41:07;;;;;;;8.20;4.50;;;;;;;-1.41;68.82;100274.58;106350;1253;71265;-80
2024/01/20 10:43:39;;;;;;;5.70;3.80;;;;;;;-1.39;68.33;100263.85;105795;1253;60516;-78
2024/01/20 10:46:21;;;;;;;6.90;4.00;;;;;;;-1.26;67.81;100261.80;106400;1256;60399;-80
2024/01/20 10:48:53;;;;;;;4.90;3.10;;;;;;;-1.20;67.52;100267.40;105846;1253;74195;-80
2024/01/20 10:51:24;;;;;;;5.40;2.80;;;;;;;-1.16;66.92;100264.96;106106;1257;68853;-80
2024/01/20 10:53:51;;;;;;;6.00;3.70;;;;;;;-1.18;66.02;100261.74;106181;1253;70635;-79
2024/01/20 10:56:18;;;;;;;6.10;3.90;;;;;;;-1.22;65.98;100254.45;105964;1253;60803;-77
2024/01/20 10:58:48;;;;;;;7.80;4.40;;;;;;;-1.18;65.98;100253.92;106600;1255;60418;-78
2024/01/20 11:01:15;;;;;;;8.50;4.50;;;;;;;-1.07;66.54;100257.30;106780;1256;74208;-79
2024/01/20 11:03:41;;;;;;;14.10;4.00;;;;;;;-0.88;65.87;100255.96;106143;1258;70170;-77
2024/01/20 11:06:21;;;;;;;7.70;4.20;;;;;;;-0.77;65.62;100259.03;106299;1258;72735;-77
2024/01/20 11:08:49;;;;;;;8.60;4.70;;;;;;;-0.73;65.17;100263.72;106311;1256;60534;-80
2024/01/20 11:11:17;;;;;;;7.10;3.90;;;;;;;-0.72;65.54;100262.24;106062;1253;60069;-79